This is the latest recevied weather packets stored in our database for station/object N1ADJ. If no packets are shown the sender has not sent any weather packets the latest 10 day(s).
| Time | Temp. | Humidity | Pressure | Rain* | Wind** | Luminosity | Snow |
|---|---|---|---|---|---|---|---|
| 1777252517 | 7.78° C | 78% | 1021.6 hPa | 0 mm | - | - | - |
| 1777251920 | 7.78° C | 77% | 1021.3 hPa | 0 mm | - | - | - |
| 1777251317 | 8.33° C | 76% | 1021.3 hPa | 0 mm | - | - | - |
| 1777250723 | 8.89° C | 74% | 1021.2 hPa | 0 mm | - | - | - |
| 1777250419 | 8.89° C | 74% | 1021.3 hPa | 0 mm | - | - | - |
| 1777248017 | 10.56° C | 73% | 1020.9 hPa | 0 mm | - | - | - |
| 1777242017 | 12.78° C | 65% | 1020.4 hPa | 0 mm | - | - | - |
| 1777241719 | 12.78° C | 67% | 1020.4 hPa | 0 mm | - | - | - |
| 1777241417 | 12.78° C | 70% | 1020.4 hPa | 0 mm | - | - | - |
| 1777240217 | 13.33° C | 59% | 1020.4 hPa | 0 mm | - | - | - |
| 1777239919 | 13.33° C | 66% | 1020.4 hPa | 0 mm | - | - | - |
| 1777237518 | 13.33° C | 58% | 1020.3 hPa | 0 mm | - | - | - |
| 1777237218 | 13.33° C | 58% | 1020.2 hPa | 0 mm | - | - | - |
| 1777234518 | 12.78° C | 60% | 1020 hPa | 0 mm | - | - | - |
| 1777228518 | 13.33° C | 66% | 1020.1 hPa | 0 mm | - | - | - |
| 1777225520 | 14.44° C | 54% | 1019.9 hPa | 0 mm | - | - | - |
| 1777224338 | 16.11° C | 55% | 1019.6 hPa | 0 mm | - | - | - |
| 1777224029 | 16.11° C | 54% | 1019.5 hPa | 0 mm | - | - | - |
| 1777221329 | 13.89° C | 67% | 1019.8 hPa | 0 mm | - | - | - |
| 1777221040 | 14.44° C | 68% | 1019.8 hPa | 0 mm | - | - | - |
| 1777220118 | 13.89° C | 68% | 1019.8 hPa | 0 mm | - | - | - |
| 1777219816 | 13.89° C | 67% | 1019.9 hPa | 0 mm | - | - | - |
| 1777213539 | 15° C | 53% | 1019.9 hPa | 0 mm | - | - | - |
| 1777213218 | 15° C | 57% | 1020 hPa | 0 mm | - | - | - |
| 1777209920 | 13.33° C | 63% | 1019.8 hPa | 0 mm | - | - | - |
* Rain latest hour (hover to see other rain measurements)
** Current wind speed in m/s (hover to see current wind gust speed)